createdAt,value
2019-03-20T00:00:04.972Z,14.07
2019-03-20T00:02:33.598Z,8.40
2019-03-20T00:05:02.250Z,12.20
2019-03-20T00:07:30.905Z,9.10
2019-03-20T00:09:59.584Z,8.80
2019-03-20T00:12:28.240Z,8.70
2019-03-20T00:14:56.898Z,8.23
2019-03-20T00:17:25.581Z,7.03
2019-03-20T00:19:54.337Z,7.97
2019-03-20T00:22:22.992Z,8.33
2019-03-20T00:24:51.648Z,9.43
2019-03-20T00:27:20.321Z,8.73
2019-03-20T00:29:49.013Z,11.78
2019-03-20T00:32:17.677Z,9.88
2019-03-20T00:34:46.333Z,9.33
2019-03-20T00:37:15.000Z,9.43
2019-03-20T00:39:43.681Z,12.25
2019-03-20T00:42:12.343Z,10.25
2019-03-20T00:44:41.024Z,11.48
2019-03-20T00:47:09.697Z,11.18
2019-03-20T00:49:38.361Z,10.20
2019-03-20T00:52:07.129Z,9.65
2019-03-20T00:54:35.782Z,9.38
2019-03-20T00:57:04.442Z,9.65
2019-03-20T00:59:33.118Z,8.90
2019-03-20T01:02:01.778Z,8.78
2019-03-20T01:04:30.460Z,8.85
2019-03-20T01:06:59.117Z,9.93
2019-03-20T01:09:27.768Z,9.93
2019-03-20T01:11:56.536Z,10.05
2019-03-20T01:14:25.195Z,9.93
2019-03-20T01:16:53.867Z,9.55
2019-03-20T01:19:22.654Z,9.88
2019-03-20T01:21:51.306Z,9.60
2019-03-20T01:24:19.967Z,8.25
2019-03-20T01:26:48.642Z,9.88
2019-03-20T01:29:17.321Z,9.58
2019-03-20T01:31:45.982Z,8.10
2019-03-20T01:34:14.663Z,7.95
2019-03-20T01:36:43.313Z,8.23
2019-03-20T01:39:12.043Z,10.82
2019-03-20T01:41:40.736Z,9.23
2019-03-20T01:44:09.450Z,8.78
2019-03-20T01:46:38.135Z,8.40
2019-03-20T01:49:06.777Z,8.55
2019-03-20T01:51:35.456Z,8.65
2019-03-20T01:54:04.185Z,10.08
2019-03-20T01:56:32.841Z,9.90
2019-03-20T01:59:01.513Z,8.90
2019-03-20T02:01:30.270Z,9.28
2019-03-20T02:03:58.929Z,9.20
2019-03-20T02:06:27.576Z,8.93
2019-03-20T02:08:57.300Z,11.95
2019-03-20T02:11:26.256Z,9.03
2019-03-20T02:13:55.210Z,7.90
2019-03-20T02:16:24.288Z,7.58
2019-03-20T02:18:52.965Z,9.38
2019-03-20T02:21:21.641Z,7.97
2019-03-20T02:23:50.332Z,8.33
2019-03-20T02:26:18.975Z,9.80
2019-03-20T02:28:47.624Z,8.40
2019-03-20T02:31:16.382Z,9.18
2019-03-20T02:33:45.035Z,8.50
2019-03-20T02:36:13.702Z,10.80
2019-03-20T02:38:42.363Z,9.13
2019-03-20T02:41:11.021Z,8.85
2019-03-20T02:43:39.696Z,9.85
2019-03-20T02:46:08.352Z,8.65
2019-03-20T02:48:37.020Z,9.50
2019-03-20T02:51:05.789Z,10.10
2019-03-20T02:53:34.448Z,10.93
2019-03-20T02:56:03.109Z,9.58
2019-03-20T02:58:31.783Z,7.22
2019-03-20T03:01:00.515Z,8.03
2019-03-20T03:03:29.151Z,8.98
2019-03-20T03:06:06.585Z,8.63
2019-03-20T03:08:28.273Z,8.63
2019-03-20T03:10:56.962Z,8.38
2019-03-20T03:13:25.626Z,9.00
2019-03-20T03:15:54.295Z,7.87
2019-03-20T03:18:22.978Z,8.30
2019-03-20T03:20:51.701Z,8.28
2019-03-20T03:23:20.362Z,8.03
2019-03-20T03:25:50.347Z,6.80
2019-03-20T03:28:19.182Z,7.75
2019-03-20T03:30:47.891Z,8.93
2019-03-20T03:33:16.511Z,9.20
2019-03-20T03:35:45.166Z,12.07
2019-03-20T03:38:13.846Z,9.33
2019-03-20T03:40:43.645Z,8.48
2019-03-20T03:43:12.341Z,7.67
2019-03-20T03:45:41.129Z,9.45
2019-03-20T03:48:09.805Z,7.92
2019-03-20T03:50:38.494Z,9.55
2019-03-20T03:53:07.154Z,9.35
2019-03-20T03:55:36.244Z,8.58
2019-03-20T03:58:05.010Z,7.83
2019-03-20T04:00:33.655Z,9.30
2019-03-20T04:03:02.317Z,8.00
2019-03-20T04:05:31.017Z,10.32
2019-03-20T04:07:59.673Z,8.80
2019-03-20T04:10:28.332Z,9.60
2019-03-20T04:12:57.027Z,10.30
2019-03-20T04:15:25.706Z,8.88
2019-03-20T04:17:54.451Z,10.55
2019-03-20T04:20:23.231Z,8.98
2019-03-20T04:22:51.929Z,10.03
2019-03-20T04:25:20.661Z,8.18
2019-03-20T04:27:49.336Z,9.53
2019-03-20T04:30:18.181Z,9.08
2019-03-20T04:32:46.892Z,9.20
2019-03-20T04:35:15.826Z,8.03
2019-03-20T04:37:44.479Z,10.60
2019-03-20T04:40:13.226Z,9.20
2019-03-20T04:42:41.922Z,9.68
2019-03-20T04:45:12.673Z,8.93
2019-03-20T04:47:41.551Z,8.63
2019-03-20T04:50:10.638Z,9.50
2019-03-20T04:52:39.308Z,8.98
2019-03-20T04:55:08.445Z,9.15
2019-03-20T04:57:37.525Z,10.55
2019-03-20T05:00:07.997Z,9.78
2019-03-20T05:02:36.690Z,14.23
2019-03-20T05:05:05.639Z,11.15
2019-03-20T05:07:34.246Z,12.10
2019-03-20T05:10:02.941Z,11.25
2019-03-20T05:12:31.617Z,12.70
2019-03-20T05:15:00.354Z,12.95
2019-03-20T05:17:28.967Z,21.37
2019-03-20T05:19:57.629Z,17.00
2019-03-20T05:22:26.317Z,14.73
2019-03-20T05:24:54.976Z,16.85
2019-03-20T05:27:23.636Z,15.13
2019-03-20T05:29:52.321Z,15.10
2019-03-20T05:32:21.054Z,14.07
2019-03-20T05:34:49.717Z,18.02
2019-03-20T05:37:18.406Z,20.05
2019-03-20T05:39:47.068Z,15.35
2019-03-20T05:42:15.734Z,15.50
2019-03-20T05:44:44.425Z,17.00
2019-03-20T05:47:13.085Z,15.75
2019-03-20T05:49:41.748Z,14.93
2019-03-20T05:52:10.442Z,15.03
2019-03-20T05:54:39.104Z,16.77
2019-03-20T05:57:07.768Z,16.05
2019-03-20T05:59:36.447Z,16.87
2019-03-20T06:02:05.111Z,17.07
2019-03-20T06:04:33.828Z,17.45
2019-03-20T06:07:02.482Z,19.45
2019-03-20T06:09:31.135Z,18.20
2019-03-20T06:11:59.807Z,20.08
2019-03-20T06:14:28.462Z,17.77
2019-03-20T06:16:57.134Z,19.67
2019-03-20T06:19:25.797Z,18.95
2019-03-20T06:21:54.493Z,18.02
2019-03-20T06:24:23.451Z,18.65
2019-03-20T06:26:52.109Z,18.52
2019-03-20T06:29:20.783Z,17.87
2019-03-20T06:31:49.514Z,17.32
2019-03-20T06:34:18.193Z,16.57
2019-03-20T06:36:46.885Z,15.15
2019-03-20T06:39:15.820Z,15.88
2019-03-20T06:41:44.481Z,15.25
2019-03-20T06:44:13.192Z,15.05
2019-03-20T06:46:41.844Z,17.55
2019-03-20T06:49:10.502Z,18.52
2019-03-20T06:51:39.248Z,16.57
2019-03-20T06:54:07.928Z,18.95
2019-03-20T06:56:36.590Z,17.95
2019-03-20T06:59:49.300Z,19.45
2019-03-20T07:02:19.568Z,21.55
2019-03-20T07:05:13.665Z,19.75
2019-03-20T07:07:44.363Z,24.07
2019-03-20T07:11:00.167Z,19.95
2019-03-20T07:13:29.116Z,21.48
2019-03-20T07:15:57.796Z,22.27
2019-03-20T07:18:26.482Z,20.08
2019-03-20T07:20:55.146Z,18.80
2019-03-20T07:23:23.862Z,21.35
2019-03-20T07:25:52.528Z,19.85
2019-03-20T07:28:21.191Z,19.35
2019-03-20T07:30:49.860Z,18.37
2019-03-20T07:33:18.522Z,20.05
2019-03-20T07:35:47.210Z,17.30
2019-03-20T07:38:15.957Z,19.05
2019-03-20T07:40:44.609Z,21.55
2019-03-20T07:43:13.302Z,22.50
2019-03-20T07:45:41.959Z,21.70
2019-03-20T07:48:21.209Z,21.20
2019-03-20T07:50:41.046Z,18.62
2019-03-20T07:53:09.707Z,21.02
2019-03-20T07:55:38.385Z,19.37
2019-03-20T07:58:07.126Z,18.90
2019-03-20T08:00:35.960Z,17.70
2019-03-20T08:03:04.713Z,17.07
2019-03-20T08:05:33.372Z,18.07
2019-03-20T08:08:07.282Z,17.15
2019-03-20T08:10:32.559Z,16.23
2019-03-20T08:13:01.171Z,16.35
2019-03-20T08:15:29.861Z,17.15
2019-03-20T08:17:58.518Z,17.52
2019-03-20T08:20:27.248Z,16.50
2019-03-20T08:22:55.922Z,16.00
2019-03-20T08:25:24.618Z,15.90
2019-03-20T08:27:53.285Z,15.88
2019-03-20T08:30:21.972Z,16.32
2019-03-20T08:32:50.655Z,15.53
2019-03-20T08:35:19.407Z,15.45
2019-03-20T08:37:48.095Z,15.08
2019-03-20T08:40:16.919Z,15.30
2019-03-20T08:42:45.657Z,15.05
2019-03-20T08:45:14.430Z,14.53
2019-03-20T08:47:43.265Z,15.72
2019-03-20T08:50:14.652Z,15.93
2019-03-20T08:52:43.366Z,15.45
2019-03-20T08:55:12.744Z,15.53
2019-03-20T08:57:41.412Z,15.00
2019-03-20T09:00:18.821Z,15.90
2019-03-20T09:02:47.509Z,14.90
2019-03-20T09:05:16.338Z,14.85
2019-03-20T09:07:47.445Z,14.03
2019-03-20T09:10:17.386Z,16.05
2019-03-20T09:12:46.150Z,14.10
2019-03-20T09:15:15.405Z,13.15
2019-03-20T09:17:44.166Z,12.20
2019-03-20T09:20:14.568Z,10.80
2019-03-20T09:22:43.362Z,11.05
2019-03-20T09:25:14.320Z,12.47
2019-03-20T09:27:43.259Z,9.63
2019-03-20T09:30:15.063Z,10.72
2019-03-20T09:32:43.735Z,10.43
2019-03-20T09:35:12.576Z,10.32
2019-03-20T09:37:51.208Z,11.30
2019-03-20T09:40:13.551Z,9.20
2019-03-20T09:42:42.185Z,10.20
2019-03-20T09:45:12.513Z,9.88
2019-03-20T09:47:41.223Z,12.18
2019-03-20T09:50:11.713Z,9.95
2019-03-20T09:52:40.374Z,10.25
2019-03-20T09:55:09.714Z,9.20
2019-03-20T09:57:38.411Z,9.30
2019-03-20T10:00:11.681Z,8.68
2019-03-20T10:05:08.255Z,9.35
2019-03-20T10:07:36.908Z,8.05
2019-03-20T10:10:06.446Z,9.83
2019-03-20T10:12:35.147Z,8.70
2019-03-20T10:15:04.340Z,8.15
2019-03-20T10:17:33.001Z,8.55
2019-03-20T10:20:01.693Z,9.93
2019-03-20T10:22:30.349Z,9.10
2019-03-20T10:24:59.029Z,9.38
2019-03-20T10:27:27.722Z,8.90
2019-03-20T10:29:56.393Z,10.03
2019-03-20T10:32:25.056Z,7.47
2019-03-20T10:34:53.728Z,7.90
2019-03-20T10:37:22.394Z,8.13
2019-03-20T10:39:51.076Z,9.43
2019-03-20T10:42:19.767Z,7.83
2019-03-20T10:44:48.421Z,8.60
2019-03-20T10:47:17.100Z,8.68
2019-03-20T10:49:45.799Z,8.38
2019-03-20T10:52:14.446Z,8.18
2019-03-20T10:54:43.112Z,9.25
2019-03-20T10:57:11.789Z,8.30
2019-03-20T10:59:40.445Z,9.28
2019-03-20T11:02:09.190Z,9.30
2019-03-20T11:04:37.903Z,8.75
2019-03-20T11:07:06.568Z,7.70
2019-03-20T11:09:35.220Z,8.00
2019-03-20T11:12:04.015Z,6.90
2019-03-20T11:14:32.653Z,6.45
2019-03-20T11:17:01.310Z,5.72
2019-03-20T11:19:30.032Z,5.40
2019-03-20T11:21:58.676Z,6.37
2019-03-20T11:24:27.640Z,6.35
2019-03-20T11:26:56.332Z,6.12
2019-03-20T11:29:25.014Z,6.60
2019-03-20T11:31:53.745Z,6.95
2019-03-20T11:34:22.422Z,6.78
2019-03-20T11:36:51.088Z,8.08
2019-03-20T11:39:29.203Z,6.35
2019-03-20T11:41:50.227Z,6.70
2019-03-20T11:44:18.914Z,6.08
2019-03-20T11:46:47.577Z,5.92
2019-03-20T11:49:16.544Z,6.08
2019-03-20T11:51:45.213Z,4.90
2019-03-20T11:54:13.881Z,4.10
2019-03-20T11:56:42.637Z,4.08
2019-03-20T11:59:11.291Z,4.37
2019-03-20T12:01:39.969Z,4.15
2019-03-20T12:04:08.965Z,4.72
2019-03-20T12:06:37.883Z,5.25
2019-03-20T12:09:09.241Z,5.37
2019-03-20T12:11:45.786Z,5.50
2019-03-20T12:14:08.328Z,5.92
2019-03-20T12:16:37.337Z,5.30
2019-03-20T12:19:06.088Z,4.97
2019-03-20T12:21:35.132Z,4.97
2019-03-20T12:24:03.781Z,6.40
2019-03-20T12:26:32.482Z,6.30
2019-03-20T12:29:01.431Z,5.92
2019-03-20T12:31:30.252Z,6.62
2019-03-20T12:33:58.907Z,7.45
2019-03-20T12:36:27.588Z,7.50
2019-03-20T12:38:56.259Z,7.28
2019-03-20T12:41:24.944Z,7.95
2019-03-20T12:43:53.625Z,7.28
2019-03-20T12:46:22.280Z,6.95
2019-03-20T12:48:50.940Z,7.80
2019-03-20T12:51:19.708Z,8.35
2019-03-20T12:53:48.368Z,7.22
2019-03-20T12:56:17.037Z,6.70
2019-03-20T12:58:45.715Z,6.60
2019-03-20T13:01:14.381Z,6.87
2019-03-20T13:03:43.046Z,6.20
2019-03-20T13:06:11.750Z,7.00
2019-03-20T13:08:40.407Z,6.12
2019-03-20T13:11:09.064Z,6.17
2019-03-20T13:13:37.750Z,6.55
2019-03-20T13:16:06.495Z,5.65
2019-03-20T13:18:35.190Z,6.80
2019-03-20T13:21:03.915Z,5.90
2019-03-20T13:23:32.921Z,6.60
2019-03-20T13:26:01.750Z,6.83
2019-03-20T13:28:30.421Z,7.00
2019-03-20T13:31:01.984Z,7.03
2019-03-20T13:33:30.669Z,7.37
2019-03-20T13:35:59.329Z,6.65
2019-03-20T13:38:28.009Z,7.30
2019-03-20T13:40:56.671Z,6.78
2019-03-20T13:43:25.325Z,7.40
2019-03-20T13:45:54.007Z,7.78
2019-03-20T13:48:22.681Z,7.28
2019-03-20T13:50:51.418Z,8.63
2019-03-20T13:53:20.126Z,8.20
2019-03-20T13:55:48.795Z,10.25
2019-03-20T13:58:17.526Z,8.60
2019-03-20T14:00:46.204Z,8.83
2019-03-20T14:03:14.898Z,8.38
2019-03-20T14:05:43.565Z,8.43
2019-03-20T14:08:12.219Z,7.92
2019-03-20T14:10:50.002Z,7.53
2019-03-20T14:13:11.470Z,7.95
2019-03-20T14:15:40.764Z,7.78
2019-03-20T14:18:09.432Z,7.33
2019-03-20T14:20:38.437Z,7.17
2019-03-20T14:23:07.098Z,6.87
2019-03-20T14:25:35.788Z,7.55
2019-03-20T14:28:04.503Z,8.53
2019-03-20T14:30:34.173Z,6.78
2019-03-20T14:33:02.880Z,6.95
2019-03-20T14:35:31.605Z,7.65
2019-03-20T14:38:00.262Z,7.12
2019-03-20T14:40:35.411Z,6.90
2019-03-20T14:42:59.920Z,6.40
2019-03-20T14:45:28.729Z,6.60
2019-03-20T14:47:57.763Z,6.87
2019-03-20T14:50:26.484Z,8.00
2019-03-20T14:52:55.086Z,6.90
2019-03-20T14:55:24.031Z,7.28
2019-03-20T14:57:52.954Z,6.50
2019-03-20T15:00:23.118Z,7.08
2019-03-20T15:02:51.968Z,8.95
2019-03-20T15:05:20.706Z,6.83
2019-03-20T15:07:49.518Z,6.90
2019-03-20T15:10:19.402Z,7.33
2019-03-20T15:12:48.197Z,7.35
2019-03-20T15:15:45.076Z,6.25
2019-03-20T15:18:13.725Z,6.78
2019-03-20T15:20:42.386Z,7.15
2019-03-20T15:23:11.070Z,7.28
2019-03-20T15:25:39.752Z,6.35
2019-03-20T15:28:08.450Z,7.10
2019-03-20T15:30:37.228Z,7.72
2019-03-20T15:33:05.927Z,7.78
2019-03-20T15:35:34.591Z,6.97
2019-03-20T15:38:03.279Z,8.43
2019-03-20T15:40:32.127Z,7.50
2019-03-20T15:43:00.782Z,8.25
2019-03-20T15:45:29.477Z,8.60
2019-03-20T15:47:58.134Z,8.65
2019-03-20T15:50:27.056Z,8.05
2019-03-20T15:52:55.747Z,8.75
2019-03-20T15:55:26.691Z,8.40
2019-03-20T15:57:55.349Z,8.85
2019-03-20T16:00:24.149Z,8.85
2019-03-20T16:02:54.280Z,9.38
2019-03-20T16:05:22.943Z,8.60
2019-03-20T16:07:51.703Z,9.20
2019-03-20T16:10:21.275Z,9.10
2019-03-20T16:12:50.075Z,9.18
2019-03-20T16:15:19.888Z,9.53
2019-03-20T16:17:48.724Z,9.03
2019-03-20T16:20:17.736Z,9.83
2019-03-20T16:22:46.560Z,9.23
2019-03-20T16:25:15.540Z,8.83
2019-03-20T16:27:44.324Z,8.50
2019-03-20T16:30:18.331Z,7.10
2019-03-20T16:32:46.989Z,7.42
2019-03-20T16:35:15.684Z,6.30
2019-03-20T16:37:44.374Z,7.30
2019-03-20T16:40:18.317Z,7.05
2019-03-20T16:42:47.429Z,6.22
2019-03-20T16:45:18.347Z,6.90
2019-03-20T16:47:47.262Z,7.20
2019-03-20T16:50:16.280Z,6.12
2019-03-20T16:52:45.017Z,6.47
2019-03-20T16:55:13.801Z,5.90
2019-03-20T16:57:42.676Z,6.55
2019-03-20T17:00:17.305Z,5.92
2019-03-20T17:02:45.986Z,6.90
2019-03-20T17:05:15.042Z,6.40
2019-03-20T17:07:43.809Z,7.25
2019-03-20T17:10:15.809Z,6.85
2019-03-20T17:12:44.474Z,7.25
2019-03-20T17:15:16.772Z,6.25
2019-03-20T17:17:45.435Z,7.42
2019-03-20T17:20:14.386Z,6.62
2019-03-20T17:22:43.047Z,7.33
2019-03-20T17:25:12.467Z,7.55
2019-03-20T17:27:41.241Z,10.85
2019-03-20T17:30:19.517Z,9.38
2019-03-20T17:32:48.209Z,15.93
2019-03-20T17:35:17.144Z,13.55
2019-03-20T17:37:45.803Z,13.98
2019-03-20T17:40:15.849Z,12.23
2019-03-20T17:42:44.538Z,7.75
2019-03-20T17:45:14.961Z,6.70
2019-03-20T17:47:43.995Z,11.73
2019-03-20T17:50:18.515Z,14.45
2019-03-20T17:52:47.608Z,9.50
2019-03-20T17:55:16.347Z,11.28
2019-03-20T17:57:45.032Z,16.52
2019-03-20T18:00:16.838Z,7.20
2019-03-20T18:02:45.558Z,11.40
2019-03-20T18:05:14.583Z,6.87
2019-03-20T18:07:43.239Z,7.67
2019-03-20T18:10:11.932Z,5.15
2019-03-20T18:12:40.615Z,4.62
2019-03-20T18:15:10.583Z,5.20
2019-03-20T18:17:39.227Z,5.53
2019-03-20T18:20:09.411Z,5.03
2019-03-20T18:22:38.067Z,4.62
2019-03-20T18:25:07.475Z,5.00
2019-03-20T18:27:36.146Z,4.58
2019-03-20T18:30:07.655Z,4.42
2019-03-20T18:32:36.327Z,5.03
2019-03-20T18:35:05.536Z,4.60
2019-03-20T18:37:34.180Z,4.90
2019-03-20T18:40:02.848Z,6.30
2019-03-20T18:42:31.535Z,6.92
2019-03-20T18:45:00.361Z,9.88
2019-03-20T18:47:28.945Z,10.15
2019-03-20T18:49:57.606Z,5.58
2019-03-20T18:52:26.295Z,6.37
2019-03-20T18:54:54.944Z,6.15
2019-03-20T18:57:23.624Z,4.53
2019-03-20T18:59:52.307Z,6.45
2019-03-20T19:02:20.957Z,5.25
2019-03-20T19:04:49.620Z,5.33
2019-03-20T19:07:18.295Z,5.40
2019-03-20T19:09:46.952Z,5.17
2019-03-20T19:12:15.598Z,6.20
2019-03-20T19:14:44.287Z,6.08
2019-03-20T19:17:12.935Z,5.90
2019-03-20T19:19:41.587Z,5.62
2019-03-20T19:22:10.278Z,5.50
2019-03-20T19:24:38.916Z,6.22
2019-03-20T19:27:07.566Z,6.37
2019-03-20T19:29:36.249Z,5.95
2019-03-20T19:32:04.996Z,4.83
2019-03-20T19:34:33.647Z,5.80
2019-03-20T19:37:02.334Z,7.10
2019-03-20T19:39:30.993Z,6.12
2019-03-20T19:41:59.647Z,9.20
2019-03-20T19:44:28.323Z,11.03
2019-03-20T19:46:57.012Z,9.95
2019-03-20T19:49:25.669Z,8.90
2019-03-20T19:51:54.326Z,13.00
2019-03-20T19:54:23.001Z,7.83
2019-03-20T19:56:51.755Z,7.83
2019-03-20T19:59:20.417Z,7.87
2019-03-20T20:01:49.079Z,6.72
2019-03-20T20:04:17.758Z,8.10
2019-03-20T20:06:46.411Z,6.53
2019-03-20T20:09:15.124Z,6.35
2019-03-20T20:11:43.807Z,5.97
2019-03-20T20:14:12.467Z,6.20
2019-03-20T20:16:41.155Z,7.08
2019-03-20T20:19:09.808Z,7.92
2019-03-20T20:21:38.457Z,7.75
2019-03-20T20:24:07.147Z,8.48
2019-03-20T20:26:35.801Z,18.48
2019-03-20T20:29:04.536Z,22.60
2019-03-20T20:31:33.226Z,9.03
2019-03-20T20:34:01.896Z,9.40
2019-03-20T20:36:30.577Z,9.53
2019-03-20T20:38:59.236Z,11.45
2019-03-20T20:41:27.894Z,9.58
2019-03-20T20:43:56.573Z,9.90
2019-03-20T20:46:25.232Z,8.48
2019-03-20T20:48:53.925Z,9.78
2019-03-20T20:51:22.589Z,11.65
2019-03-20T20:53:51.253Z,11.33
2019-03-20T20:56:22.469Z,10.55
2019-03-20T20:58:50.324Z,11.30
2019-03-20T21:01:18.981Z,11.15
2019-03-20T21:03:48.028Z,9.50
2019-03-20T21:06:16.686Z,12.10
2019-03-20T21:08:45.347Z,11.00
2019-03-20T21:11:14.026Z,10.43
2019-03-20T21:13:42.714Z,11.83
2019-03-20T21:16:11.929Z,8.85
2019-03-20T21:19:21.842Z,8.78
2019-03-20T21:22:47.519Z,8.90
2019-03-20T21:25:21.066Z,10.72
2019-03-20T21:28:27.163Z,11.75
2019-03-20T21:31:07.513Z,11.08
2019-03-20T21:34:07.829Z,10.30
2019-03-20T21:36:57.812Z,10.45
2019-03-20T21:39:27.034Z,10.35
2019-03-20T21:42:39.878Z,11.57
2019-03-20T21:45:47.119Z,11.12
2019-03-20T21:48:16.695Z,12.33
2019-03-20T21:51:14.399Z,12.58
2019-03-20T21:54:24.569Z,12.23
2019-03-20T21:57:09.220Z,13.40
2019-03-20T22:00:15.416Z,13.35
2019-03-20T22:02:45.057Z,12.23
2019-03-20T22:05:35.591Z,10.08
2019-03-20T22:08:04.933Z,9.85
2019-03-20T22:11:39.417Z,12.80
2019-03-20T22:14:10.126Z,12.03
2019-03-20T22:17:31.347Z,13.48
2019-03-20T22:20:35.086Z,13.95
2019-03-20T22:23:36.646Z,12.37
2019-03-20T22:26:46.198Z,11.85
2019-03-20T22:29:25.649Z,16.10
2019-03-20T22:32:36.653Z,16.17
2019-03-20T22:35:44.976Z,15.70
2019-03-20T22:39:04.881Z,12.45
2019-03-20T22:41:56.755Z,15.28
2019-03-20T22:44:25.987Z,12.75
2019-03-20T22:47:38.503Z,12.10
2019-03-20T22:50:33.582Z,15.10
2019-03-20T22:53:29.592Z,17.25
2019-03-20T22:56:11.422Z,16.97
2019-03-20T22:58:42.853Z,15.45
2019-03-20T23:01:42.418Z,21.00
2019-03-20T23:04:15.846Z,16.60
2019-03-20T23:06:45.098Z,14.47
2019-03-20T23:09:14.311Z,14.30
2019-03-20T23:11:43.582Z,13.68
2019-03-20T23:14:12.807Z,13.85
2019-03-20T23:16:42.308Z,14.33
2019-03-20T23:19:11.527Z,14.25
2019-03-20T23:21:40.747Z,11.73
2019-03-20T23:24:09.947Z,12.15
2019-03-20T23:26:39.229Z,11.88
2019-03-20T23:29:08.430Z,12.13
2019-03-20T23:31:37.659Z,13.80
2019-03-20T23:34:06.885Z,11.20
2019-03-20T23:36:36.086Z,12.50
2019-03-20T23:39:08.309Z,11.88
2019-03-20T23:41:37.871Z,15.93
2019-03-20T23:44:07.157Z,14.13
2019-03-20T23:46:36.963Z,12.53
2019-03-20T23:49:15.655Z,13.53
2019-03-20T23:51:44.874Z,14.23
2019-03-20T23:54:16.143Z,13.60
2019-03-20T23:56:45.402Z,15.78
2019-03-20T23:59:14.629Z,15.00
